Time;durP1;ratioP1;P1;durP2;ratioP2;P2;SDS_P1;SDS_P2;PMS_P1;PMS_P2;Temp;Humidity;BMP_temperature;BMP_pressure;BME280_temperature;BME280_humidity;BME280_pressure;Samples;Min_cycle;Max_cycle;Signal;HPM_P1;HPM_P2
2023/03/24 00:02:27;;;;;;;8.02;2.97;;;11.10;99.90;;;;;;5122414;28;20043;-81
2023/03/24 00:04:57;;;;;;;11.00;3.75;;;11.10;99.90;;;;;;5123573;28;20047;-83
2023/03/24 00:07:23;;;;;;;17.60;3.97;;;11.20;99.90;;;;;;5122386;28;20120;-77
2023/03/24 00:09:49;;;;;;;15.50;3.63;;;11.20;99.90;;;;;;5120807;28;20043;-85
2023/03/24 00:12:17;;;;;;;12.35;3.13;;;11.10;99.90;;;;;;5119661;28;20040;-84
2023/03/24 00:14:45;;;;;;;11.45;3.63;;;11.10;99.90;;;;;;5120912;28;20484;-85
2023/03/24 00:17:12;;;;;;;16.38;3.42;;;11.10;99.90;;;;;;5103118;28;20046;-80
2023/03/24 00:19:38;;;;;;;10.45;2.88;;;11.20;99.90;;;;;;5119260;28;20051;-81
2023/03/24 00:22:13;;;;;;;9.70;3.43;;;11.20;99.90;;;;;;5118551;28;20056;-82
2023/03/24 00:24:39;;;;;;;12.85;3.15;;;11.10;99.90;;;;;;5117880;28;20122;-80
2023/03/24 00:27:06;;;;;;;17.70;3.60;;;11.10;99.90;;;;;;5117118;28;20059;-81
2023/03/24 00:29:32;;;;;;;10.23;3.30;;;11.10;99.90;;;;;;5117376;28;20054;-85
2023/03/24 00:31:58;;;;;;;11.27;3.15;;;11.10;99.90;;;;;;5098602;28;20134;-83
2023/03/24 00:34:24;;;;;;;14.98;3.70;;;11.10;99.90;;;;;;5119974;28;20043;-81
2023/03/24 00:36:51;;;;;;;12.30;3.65;;;11.10;99.90;;;;;;5102940;28;20039;-81
2023/03/24 00:39:18;;;;;;;9.85;3.63;;;11.10;99.90;;;;;;5101582;28;20368;-81
2023/03/24 00:41:44;;;;;;;;;;;11.10;99.90;;;;;;5121051;28;20054;-82
2023/03/24 00:44:16;;;;;;;10.80;2.92;;;11.10;99.90;;;;;;5085237;28;19924;-85
2023/03/24 00:46:54;;;;;;;9.68;3.65;;;11.10;99.90;;;;;;5102966;28;20376;-86
2023/03/24 00:49:43;;;;;;;9.00;3.08;;;11.10;99.90;;;;;;5120885;28;20047;-83
2023/03/24 00:52:23;;;;;;;12.48;3.45;;;11.10;99.90;;;;;;5088206;28;20143;-79
2023/03/24 00:54:53;;;;;;;11.52;2.97;;;11.10;99.90;;;;;;5104594;28;20047;-81
2023/03/24 00:57:20;;;;;;;9.63;3.20;;;11.10;99.90;;;;;;5122671;28;20130;-80
2023/03/24 00:59:50;;;;;;;15.55;3.70;;;11.10;99.90;;;;;;5122065;28;20051;-80
2023/03/24 01:02:23;;;;;;;11.10;3.65;;;11.10;99.90;;;;;;5088420;28;20051;-84
2023/03/24 01:04:53;;;;;;;10.40;3.25;;;11.10;99.90;;;;;;5123841;28;20044;-82
2023/03/24 01:07:20;;;;;;;9.20;2.70;;;11.10;99.90;;;;;;5104287;28;20384;-84
2023/03/24 01:09:50;;;;;;;10.63;2.85;;;11.10;99.90;;;;;;5103533;28;20051;-81
2023/03/24 01:12:18;;;;;;;11.82;3.00;;;11.10;99.90;;;;;;5102868;28;20063;-80
2023/03/24 01:14:45;;;;;;;9.25;3.13;;;11.20;99.90;;;;;;5102256;28;20071;-80
2023/03/24 01:17:11;;;;;;;14.38;3.15;;;11.10;99.90;;;;;;5084508;28;20495;-81
2023/03/24 01:19:39;;;;;;;8.45;2.85;;;11.20;99.90;;;;;;5082476;28;20040;-82
2023/03/24 01:22:05;;;;;;;10.82;2.97;;;11.10;99.90;;;;;;5099568;28;20714;-81
2023/03/24 01:24:31;;;;;;;9.80;2.80;;;11.10;99.90;;;;;;5118004;28;20039;-80
2023/03/24 01:26:57;;;;;;;7.43;3.08;;;11.20;99.90;;;;;;5100496;28;20487;-79
2023/03/24 01:29:25;;;;;;;10.40;2.80;;;11.20;99.90;;;;;;5099033;28;20049;-83
2023/03/24 01:31:51;;;;;;;9.20;2.70;;;11.10;99.90;;;;;;5098864;28;20043;-80
2023/03/24 01:34:17;;;;;;;9.60;3.38;;;11.10;99.90;;;;;;5100039;28;20112;-81
2023/03/24 01:36:43;;;;;;;10.93;3.25;;;11.10;99.90;;;;;;5117786;28;20126;-83
2023/03/24 01:39:08;;;;;;;10.60;4.32;;;11.20;99.90;;;;;;5117546;28;20499;-78
2023/03/24 01:41:37;;;;;;;12.15;3.38;;;11.20;99.90;;;;;;5099267;28;20122;-82
2023/03/24 01:44:35;;;;;;;9.68;3.92;;;11.10;99.90;;;;;;5118604;28;20406;-82
2023/03/24 01:47:04;;;;;;;11.85;3.85;;;11.10;99.90;;;;;;5118679;28;20077;-80
2023/03/24 01:49:45;;;;;;;15.23;5.07;;;11.20;99.90;;;;;;5102088;28;20445;-81
2023/03/24 01:52:25;;;;;;;9.23;3.35;;;11.10;99.90;;;;;;5120198;28;20151;-81
2023/03/24 01:55:06;;;;;;;12.20;3.85;;;11.20;99.90;;;;;;5121050;28;20050;-83
2023/03/24 01:57:37;;;;;;;9.35;2.28;;;11.20;99.90;;;;;;5120884;28;20044;-81
2023/03/24 02:00:09;;;;;;;7.60;3.00;;;11.20;99.90;;;;;;5120597;28;20040;-81
2023/03/24 02:02:36;;;;;;;8.40;3.60;;;11.20;99.90;;;;;;5104933;28;20044;-85
2023/03/24 02:05:07;;;;;;;9.18;3.65;;;11.20;99.90;;;;;;5121553;28;20040;-83
2023/03/24 02:08:01;;;;;;;12.02;4.00;;;11.20;99.90;;;;;;5123168;28;20352;-82
2023/03/24 02:10:32;;;;;;;9.43;3.97;;;11.30;99.90;;;;;;5122503;28;20364;-82
2023/03/24 02:12:57;;;;;;;9.20;3.80;;;11.30;99.90;;;;;;5123623;28;20042;-80
2023/03/24 02:15:27;;;;;;;10.95;3.83;;;11.30;99.90;;;;;;5121858;28;20396;-84
2023/03/24 02:18:36;;;;;;;8.93;3.97;;;11.30;99.90;;;;;;5085360;28;20052;-82
2023/03/24 02:21:45;;;;;;;11.13;3.97;;;11.30;99.90;;;;;;5110367;28;20082;-83
2023/03/24 02:24:39;;;;;;;11.75;4.15;;;11.30;99.90;;;;;;5101585;28;20353;-79
2023/03/24 02:27:31;;;;;;;10.07;4.03;;;11.30;99.90;;;;;;5120880;28;20093;-80
2023/03/24 02:30:20;;;;;;;8.48;2.83;;;11.30;99.90;;;;;;5077916;28;20077;-82
2023/03/24 02:33:16;;;;;;;8.52;3.55;;;11.40;99.90;;;;;;5107684;28;20142;-83
2023/03/24 02:36:29;;;;;;;11.95;4.38;;;11.40;99.90;;;;;;5117871;28;20047;-82
2023/03/24 02:39:37;;;;;;;9.57;4.10;;;11.40;99.90;;;;;;5088740;28;20048;-81
2023/03/24 02:42:30;;;;;;;9.45;4.10;;;11.40;99.90;;;;;;5060866;28;20055;-80
2023/03/24 02:44:59;;;;;;;10.55;4.20;;;11.50;99.90;;;;;;5116296;28;20054;-83
2023/03/24 02:47:36;;;;;;;10.60;4.15;;;11.50;99.90;;;;;;5117117;28;20128;-82
2023/03/24 02:50:16;;;;;;;10.85;4.40;;;11.40;99.90;;;;;;5115700;28;20498;-83
2023/03/24 02:52:55;;;;;;;10.68;4.95;;;11.50;99.90;;;;;;5081965;28;20055;-82
2023/03/24 02:55:31;;;;;;;11.32;4.18;;;11.50;99.90;;;;;;5115599;28;20040;-82
2023/03/24 02:58:06;;;;;;;9.45;4.63;;;11.40;99.90;;;;;;5118011;28;20467;-81
2023/03/24 03:00:58;;;;;;;10.30;5.03;;;11.50;99.90;;;;;;5118392;28;20043;-83
2023/03/24 03:03:47;;;;;;;12.30;5.40;;;11.40;99.90;;;;;;5118759;28;20048;-82
2023/03/24 03:06:29;;;;;;;11.05;4.72;;;11.40;99.90;;;;;;5100690;28;20039;-82
2023/03/24 03:08:58;;;;;;;12.07;4.60;;;11.40;99.90;;;;;;5102379;28;20087;-81
2023/03/24 03:11:24;;;;;;;11.05;5.30;;;11.40;99.90;;;;;;5084740;28;20052;-81
2023/03/24 03:14:09;;;;;;;9.20;4.55;;;11.40;99.90;;;;;;5119479;28;20054;-83
2023/03/24 03:16:45;;;;;;;11.52;5.07;;;11.40;99.90;;;;;;5118716;28;20054;-82
2023/03/24 03:19:17;;;;;;;9.20;4.40;;;11.50;99.90;;;;;;5119093;28;20090;-82
2023/03/24 03:21:44;;;;;;;9.73;4.25;;;11.40;99.90;;;;;;5101768;28;20056;-80
2023/03/24 03:24:25;;;;;;;10.65;4.78;;;11.50;99.90;;;;;;5116844;28;20562;-78
2023/03/24 03:26:59;;;;;;;11.13;4.90;;;11.50;99.90;;;;;;5099712;28;20055;-80
2023/03/24 03:29:29;;;;;;;10.70;4.68;;;11.50;99.90;;;;;;5118313;28;20059;-84
2023/03/24 03:32:06;;;;;;;9.57;3.63;;;11.50;99.90;;;;;;5083947;28;20051;-83
2023/03/24 03:35:04;;;;;;;7.70;3.75;;;11.50;99.90;;;;;;5120647;28;20413;-79
2023/03/24 03:37:50;;;;;;;8.95;3.50;;;11.60;99.90;;;;;;5101234;28;20069;-84
2023/03/24 03:40:50;;;;;;;9.50;3.55;;;11.60;99.90;;;;;;5115802;28;20047;-80
2023/03/24 03:43:16;;;;;;;7.07;2.88;;;11.60;99.90;;;;;;5110934;28;20062;-84
2023/03/24 03:45:42;;;;;;;5.57;2.43;;;11.60;99.90;;;;;;5098623;28;20082;-77
2023/03/24 03:48:08;;;;;;;7.45;3.03;;;11.60;99.90;;;;;;5117704;28;20048;-82
2023/03/24 03:50:34;;;;;;;7.25;3.25;;;11.60;99.90;;;;;;5118174;28;20099;-78
2023/03/24 03:53:00;;;;;;;6.38;2.90;;;11.60;99.90;;;;;;5100671;28;20049;-84
2023/03/24 03:55:26;;;;;;;6.63;2.80;;;11.50;99.90;;;;;;5102378;28;20063;-82
2023/03/24 03:57:53;;;;;;;7.20;3.00;;;11.40;99.90;;;;;;5102265;28;20056;-82
2023/03/24 04:00:21;;;;;;;;;;;11.30;99.90;;;;;;5119743;28;20092;-78
2023/03/24 04:02:58;;;;;;;6.85;1.23;;;11.00;99.90;;;;;;5118827;28;19926;-81
2023/03/24 04:05:47;;;;;;;6.03;1.40;;;10.90;99.90;;;;;;5100132;28;20040;-81
2023/03/24 04:08:18;;;;;;;9.02;1.35;;;10.70;99.90;;;;;;5121210;28;20434;-80
2023/03/24 04:11:11;;;;;;;8.75;1.60;;;10.70;99.90;;;;;;5121805;28;20123;-82
2023/03/24 04:13:49;;;;;;;7.68;1.55;;;10.70;99.90;;;;;;5103576;28;20108;-79
2023/03/24 04:16:53;;;;;;;8.70;1.33;;;10.60;99.90;;;;;;5103968;28;20189;-82
2023/03/24 04:19:35;;;;;;;5.90;1.20;;;10.60;99.90;;;;;;5104173;28;20044;-82
2023/03/24 04:22:23;;;;;;;9.23;1.05;;;10.50;99.90;;;;;;5119475;28;20051;-80
2023/03/24 04:25:28;;;;;;;5.78;1.00;;;10.40;99.90;;;;;;5102532;28;20379;-78
2023/03/24 04:27:59;;;;;;;9.70;1.00;;;10.30;99.90;;;;;;5078237;28;20070;-79
2023/03/24 04:30:42;;;;;;;9.38;1.52;;;10.30;99.90;;;;;;5100028;28;20048;-76
2023/03/24 04:33:34;;;;;;;12.05;1.10;;;10.20;99.90;;;;;;5100313;28;20058;-76
2023/03/24 04:36:17;;;;;;;5.03;1.00;;;10.30;99.90;;;;;;5118948;28;20506;-78
2023/03/24 04:38:52;;;;;;;4.88;0.77;;;10.20;99.90;;;;;;5117842;28;20484;-78
2023/03/24 04:41:21;;;;;;;7.95;1.00;;;10.20;99.90;;;;;;5100256;28;20467;-77
2023/03/24 04:43:47;;;;;;;7.90;1.23;;;10.20;99.90;;;;;;5119223;28;20083;-78
2023/03/24 04:46:16;;;;;;;10.55;0.80;;;10.30;99.90;;;;;;5098773;28;20399;-77
2023/03/24 04:48:47;;;;;;;17.75;2.70;;;10.20;99.90;;;;;;5100877;28;20130;-77
2023/03/24 04:51:14;;;;;;;7.32;1.27;;;10.20;99.90;;;;;;5084487;28;20090;-77
2023/03/24 04:53:40;;;;;;;13.23;1.40;;;10.20;99.90;;;;;;5118478;28;20051;-74
2023/03/24 04:56:06;;;;;;;10.35;1.38;;;10.20;99.90;;;;;;5084223;28;20084;-78
2023/03/24 04:58:32;;;;;;;8.77;1.38;;;10.20;99.90;;;;;;5118243;28;20051;-78
2023/03/24 05:00:58;;;;;;;12.50;1.83;;;10.30;99.90;;;;;;5118315;28;20099;-80
2023/03/24 05:03:24;;;;;;;8.52;1.20;;;10.20;99.90;;;;;;5119339;28;20421;-80
2023/03/24 05:05:52;;;;;;;13.40;1.58;;;10.30;99.90;;;;;;5118066;28;20047;-75
2023/03/24 05:08:18;;;;;;;13.60;1.70;;;10.30;99.90;;;;;;5100951;28;20047;-80
2023/03/24 05:10:44;;;;;;;13.55;1.88;;;10.30;99.90;;;;;;5118727;28;20058;-78
2023/03/24 05:13:11;;;;;;;14.70;1.60;;;10.20;99.90;;;;;;5067220;28;20503;-78
2023/03/24 05:15:36;;;;;;;12.75;1.73;;;10.10;99.90;;;;;;5100315;28;20050;-79
2023/03/24 05:18:03;;;;;;;9.88;1.25;;;10.00;99.90;;;;;;5117896;28;20426;-78
2023/03/24 05:20:29;;;;;;;10.55;1.30;;;10.00;99.90;;;;;;5121043;28;20051;-79
2023/03/24 05:22:55;;;;;;;8.27;0.88;;;9.90;99.90;;;;;;5067542;28;20075;-77
2023/03/24 05:25:21;;;;;;;8.10;1.73;;;9.90;99.90;;;;;;5121676;28;20035;-77
2023/03/24 05:27:47;;;;;;;7.38;1.05;;;9.90;99.90;;;;;;5120134;28;20048;-77
2023/03/24 05:30:15;;;;;;;10.82;1.02;;;9.90;99.90;;;;;;5120541;28;20126;-80
2023/03/24 05:32:41;;;;;;;;;;;9.90;99.90;;;;;;5121460;28;20395;-80
2023/03/24 05:35:07;;;;;;;10.20;2.00;;;9.80;99.90;;;;;;5086843;28;19920;-77
2023/03/24 05:37:33;;;;;;;9.43;1.10;;;9.70;99.90;;;;;;5122135;28;20539;-79
2023/03/24 05:39:59;;;;;;;6.80;1.08;;;9.50;99.90;;;;;;5103109;28;20081;-79
2023/03/24 05:42:25;;;;;;;12.38;1.50;;;9.50;99.90;;;;;;5105015;28;20095;-84
2023/03/24 05:44:50;;;;;;;9.82;0.82;;;9.50;99.90;;;;;;5121728;28;20040;-78
2023/03/24 05:47:18;;;;;;;11.60;1.20;;;9.40;99.90;;;;;;5101511;28;20080;-79
2023/03/24 05:49:45;;;;;;;5.13;1.10;;;9.40;99.90;;;;;;5102905;28;20051;-79
2023/03/24 05:52:13;;;;;;;12.05;1.67;;;9.40;99.90;;;;;;5100563;28;20044;-76
2023/03/24 05:54:39;;;;;;;12.65;1.60;;;9.30;99.90;;;;;;5120056;28;20039;-79
2023/03/24 05:57:08;;;;;;;10.73;1.40;;;9.30;99.90;;;;;;5119980;28;20055;-77
2023/03/24 05:59:34;;;;;;;14.60;1.33;;;9.30;99.90;;;;;;5120300;28;20545;-83
2023/03/24 06:02:00;;;;;;;6.55;1.30;;;9.40;99.90;;;;;;5101139;28;20047;-76
2023/03/24 06:04:29;;;;;;;8.35;1.38;;;9.30;99.90;;;;;;5120762;28;20131;-78
2023/03/24 06:06:59;;;;;;;14.73;1.20;;;9.30;99.90;;;;;;5100647;28;20096;-77
2023/03/24 06:09:28;;;;;;;10.57;1.98;;;9.30;99.90;;;;;;5119343;28;20220;-79
2023/03/24 06:12:03;;;;;;;4.93;1.10;;;9.40;99.90;;;;;;5102792;28;20047;-77
2023/03/24 06:14:29;;;;;;;10.38;1.50;;;9.40;99.90;;;;;;5122211;28;20048;-82
2023/03/24 06:16:58;;;;;;;6.00;1.10;;;9.50;99.90;;;;;;5120093;28;20079;-79
2023/03/24 06:19:25;;;;;;;10.70;1.77;;;9.70;99.90;;;;;;5120034;28;20112;-79
2023/03/24 06:21:52;;;;;;;14.32;1.27;;;9.70;99.90;;;;;;5121189;28;20051;-81
2023/03/24 06:24:18;;;;;;;10.40;1.38;;;9.80;99.90;;;;;;5102202;28;20391;-83
2023/03/24 06:26:44;;;;;;;8.70;1.13;;;9.90;99.90;;;;;;5101528;28;20526;-82
2023/03/24 06:29:11;;;;;;;10.07;1.40;;;9.90;99.90;;;;;;5120741;28;20040;-79
2023/03/24 06:31:38;;;;;;;13.63;1.88;;;10.00;99.90;;;;;;5120628;28;20104;-77
2023/03/24 06:34:04;;;;;;;11.07;1.45;;;10.00;99.90;;;;;;5102536;28;20059;-80
2023/03/24 06:36:30;;;;;;;13.55;1.60;;;10.00;99.90;;;;;;5122742;28;20043;-83
2023/03/24 06:38:56;;;;;;;14.75;1.50;;;10.00;99.90;;;;;;5120696;28;20035;-82
2023/03/24 06:41:22;;;;;;;17.70;2.22;;;10.00;99.90;;;;;;5086755;28;20039;-85
2023/03/24 06:43:47;;;;;;;10.75;1.70;;;10.10;99.90;;;;;;5119388;28;20047;-82
2023/03/24 06:46:14;;;;;;;9.43;1.17;;;10.10;99.90;;;;;;5101021;28;20493;-82
2023/03/24 06:48:40;;;;;;;15.83;2.13;;;10.20;99.90;;;;;;5099340;28;20051;-79
2023/03/24 06:51:09;;;;;;;10.05;1.45;;;10.30;99.90;;;;;;5099367;28;20132;-81
2023/03/24 06:53:36;;;;;;;18.55;1.98;;;10.30;99.90;;;;;;5099433;28;20518;-80
2023/03/24 06:56:02;;;;;;;10.93;1.40;;;10.40;99.90;;;;;;5100101;28;20063;-78
2023/03/24 06:58:27;;;;;;;13.15;1.95;;;10.40;99.90;;;;;;5081453;28;20418;-76
2023/03/24 07:00:54;;;;;;;18.83;1.90;;;10.40;99.90;;;;;;5099192;28;20048;-81
2023/03/24 07:03:22;;;;;;;12.20;1.70;;;10.40;99.90;;;;;;5117480;28;20421;-79
2023/03/24 07:05:47;;;;;;;16.00;2.05;;;10.50;99.90;;;;;;5082905;28;20543;-81
2023/03/24 07:08:13;;;;;;;15.13;1.67;;;10.50;99.90;;;;;;5116882;28;20078;-76
2023/03/24 07:10:39;;;;;;;11.85;1.48;;;10.50;99.90;;;;;;5098911;28;20050;-76
2023/03/24 07:13:06;;;;;;;14.55;1.20;;;10.40;99.90;;;;;;5118009;28;20095;-83
2023/03/24 07:15:32;;;;;;;17.98;1.73;;;10.40;99.90;;;;;;5081997;28;20048;-78
2023/03/24 07:17:58;;;;;;;25.83;2.40;;;10.50;99.90;;;;;;5117024;28;20052;-78
2023/03/24 07:20:24;;;;;;;16.98;1.73;;;10.50;99.90;;;;;;5115633;28;20135;-77
2023/03/24 07:22:50;;;;;;;16.02;2.03;;;10.60;99.90;;;;;;5116153;28;20043;-79
2023/03/24 07:25:19;;;;;;;23.23;2.83;;;10.60;99.90;;;;;;5097832;28;20039;-76
2023/03/24 07:27:45;;;;;;;17.02;2.45;;;10.60;99.90;;;;;;5116282;28;20134;-77
2023/03/24 07:30:12;;;;;;;23.02;2.00;;;10.70;99.90;;;;;;5097926;28;20079;-79
2023/03/24 07:32:38;;;;;;;18.45;1.92;;;10.80;99.90;;;;;;5117064;28;20051;-78
2023/03/24 07:35:06;;;;;;;24.77;2.35;;;10.90;99.90;;;;;;5116542;28;20486;-77
2023/03/24 07:37:32;;;;;;;15.50;1.55;;;10.90;99.90;;;;;;5098200;28;20047;-82
2023/03/24 07:39:58;;;;;;;24.27;2.50;;;10.90;99.90;;;;;;5097951;28;20052;-78
2023/03/24 07:42:24;;;;;;;19.90;2.30;;;11.00;99.90;;;;;;5118202;28;20047;-80
2023/03/24 07:44:51;;;;;;;20.08;2.67;;;10.90;99.90;;;;;;5120116;28;20035;-75
2023/03/24 07:47:17;;;;;;;27.20;3.10;;;10.90;99.90;;;;;;5102309;28;20060;-79
2023/03/24 07:49:42;;;;;;;19.40;2.60;;;10.90;99.90;;;;;;5102219;28;20358;-80
2023/03/24 07:52:08;;;;;;;18.88;1.92;;;11.00;99.90;;;;;;5120367;28;20051;-79
2023/03/24 07:54:34;;;;;;;14.43;1.73;;;10.90;99.90;;;;;;5103071;28;20051;-79
2023/03/24 07:57:00;;;;;;;17.27;2.83;;;10.90;99.90;;;;;;5102445;28;20137;-81
2023/03/24 07:59:26;;;;;;;18.13;2.05;;;11.10;99.90;;;;;;5102372;28;20104;-79
2023/03/24 08:01:52;;;;;;;24.65;3.05;;;11.20;99.90;;;;;;5102835;28;20127;-78
2023/03/24 08:04:21;;;;;;;23.50;2.20;;;11.20;99.90;;;;;;5086833;28;20109;-76
2023/03/24 08:06:47;;;;;;;23.42;2.10;;;11.30;99.90;;;;;;5120905;28;20495;-80
2023/03/24 08:09:13;;;;;;;21.25;2.13;;;11.40;99.90;;;;;;5121104;28;20053;-84
2023/03/24 08:11:39;;;;;;;18.77;1.98;;;11.50;99.90;;;;;;5121524;28;20085;-82
2023/03/24 08:14:05;;;;;;;25.50;2.58;;;11.60;99.90;;;;;;5120796;28;20047;-80
2023/03/24 08:16:30;;;;;;;19.70;2.28;;;11.60;99.90;;;;;;5104192;28;20429;-82
2023/03/24 08:18:57;;;;;;;19.65;2.22;;;11.70;99.90;;;;;;5120367;28;20066;-80
2023/03/24 08:21:24;;;;;;;22.43;2.37;;;11.60;99.90;;;;;;5120891;28;20065;-81
2023/03/24 08:23:49;;;;;;;;;;;11.60;99.90;;;;;;5084827;28;20043;-80
2023/03/24 08:26:16;;;;;;;18.40;1.87;;;11.60;99.90;;;;;;5101824;28;19978;-78
2023/03/24 08:28:42;;;;;;;17.95;2.00;;;11.50;99.90;;;;;;5101186;28;20395;-78
2023/03/24 08:31:07;;;;;;;14.35;1.63;;;11.50;99.90;;;;;;5119822;28;20048;-81
2023/03/24 08:33:34;;;;;;;17.00;1.90;;;11.50;99.90;;;;;;5101145;28;20073;-81
2023/03/24 08:36:00;;;;;;;18.63;2.45;;;11.30;99.90;;;;;;5102255;28;20056;-79
2023/03/24 08:38:30;;;;;;;18.15;1.90;;;11.30;99.90;;;;;;5119004;28;20061;-78
2023/03/24 08:41:00;;;;;;;23.45;2.63;;;11.30;99.90;;;;;;5100669;28;20051;-78
2023/03/24 08:43:29;;;;;;;23.83;2.05;;;11.20;99.90;;;;;;5084766;28;20077;-76
2023/03/24 08:45:59;;;;;;;19.70;1.90;;;11.00;99.90;;;;;;5119711;28;20108;-81
2023/03/24 08:48:27;;;;;;;15.02;1.90;;;11.10;99.90;;;;;;5084775;28;20059;-77
2023/03/24 08:50:53;;;;;;;17.00;1.65;;;11.10;99.90;;;;;;5118976;28;20539;-84
2023/03/24 08:53:19;;;;;;;13.70;2.33;;;11.20;99.90;;;;;;5118071;28;20069;-78
2023/03/24 08:55:45;;;;;;;15.50;1.95;;;11.50;99.90;;;;;;5083313;28;20134;-82
2023/03/24 08:58:16;;;;;;;15.77;2.10;;;11.80;99.90;;;;;;5101245;28;20039;-79
2023/03/24 09:00:43;;;;;;;14.10;1.33;;;12.20;99.90;;;;;;5118450;28;20083;-75
2023/03/24 09:03:13;;;;;;;19.70;1.85;;;12.30;99.90;;;;;;5118650;28;20504;-83
2023/03/24 09:05:39;;;;;;;17.50;2.00;;;12.30;99.90;;;;;;5100403;28;20044;-79
2023/03/24 09:08:06;;;;;;;18.80;1.77;;;12.30;99.90;;;;;;5118394;28;20059;-79
2023/03/24 09:10:33;;;;;;;19.20;1.65;;;12.30;99.90;;;;;;5100317;28;20039;-80
2023/03/24 09:12:58;;;;;;;18.70;1.80;;;12.10;99.90;;;;;;5118847;28;20130;-78
2023/03/24 09:15:24;;;;;;;19.75;2.05;;;12.10;99.90;;;;;;5084920;28;20074;-79
2023/03/24 09:17:50;;;;;;;11.63;1.40;;;12.10;99.90;;;;;;5085063;28;20122;-82
2023/03/24 09:20:17;;;;;;;13.73;1.20;;;12.20;99.90;;;;;;5101569;28;20134;-80
2023/03/24 09:22:45;;;;;;;33.70;2.67;;;12.40;99.90;;;;;;5119548;28;20051;-84
2023/03/24 09:25:17;;;;;;;12.98;1.25;;;12.40;99.90;;;;;;5103070;28;20043;-78
2023/03/24 09:27:43;;;;;;;17.10;1.60;;;12.40;99.90;;;;;;5121232;28;20050;-78
2023/03/24 09:30:11;;;;;;;16.42;1.92;;;12.40;99.90;;;;;;5121007;28;20127;-78
2023/03/24 09:32:37;;;;;;;14.95;1.27;;;12.40;99.90;;;;;;5102431;28;20134;-79
2023/03/24 09:35:04;;;;;;;13.85;1.13;;;12.40;99.90;;;;;;5102123;28;20086;-79
2023/03/24 09:37:33;;;;;;;20.17;2.08;;;12.40;99.90;;;;;;5118600;28;20452;-82
2023/03/24 09:40:00;;;;;;;12.50;1.50;;;12.50;99.90;;;;;;5121249;28;20467;-78
2023/03/24 09:42:31;;;;;;;11.32;2.45;;;12.50;99.90;;;;;;5101647;28;20131;-78
2023/03/24 09:45:00;;;;;;;12.18;1.30;;;12.50;99.90;;;;;;5100686;28;20047;-79
2023/03/24 09:47:44;;;;;;;18.50;1.58;;;12.60;99.90;;;;;;5118973;28;20356;-76
2023/03/24 09:50:42;;;;;;;13.18;1.17;;;12.60;99.90;;;;;;5120418;28;20145;-83
2023/03/24 09:53:40;;;;;;;14.80;1.30;;;12.70;99.90;;;;;;5090160;28;20102;-79
2023/03/24 09:56:17;;;;;;;18.50;1.60;;;12.80;99.90;;;;;;5073080;28;20055;-76
2023/03/24 09:58:47;;;;;;;19.00;2.17;;;12.90;99.90;;;;;;5101747;28;20101;-77
2023/03/24 10:01:15;;;;;;;15.57;1.60;;;13.10;99.90;;;;;;5101884;28;20094;-82
2023/03/24 10:03:45;;;;;;;16.75;0.82;;;13.20;99.90;;;;;;5101463;28;20443;-78
2023/03/24 10:06:25;;;;;;;12.18;1.30;;;13.30;99.90;;;;;;5118636;28;20072;-78
2023/03/24 10:09:06;;;;;;;11.18;1.40;;;13.40;99.90;;;;;;5117007;28;20490;-80
2023/03/24 10:12:18;;;;;;;10.98;1.30;;;13.40;99.90;;;;;;5116927;28;20429;-79
2023/03/24 10:15:00;;;;;;;10.77;1.45;;;13.50;99.90;;;;;;5110817;28;20047;-79
2023/03/24 10:17:42;;;;;;;15.82;1.90;;;13.60;99.90;;;;;;5116248;28;20150;-77
2023/03/24 10:20:31;;;;;;;7.95;1.10;;;13.70;99.90;;;;;;5116662;28;20047;-77
2023/03/24 10:23:33;;;;;;;14.25;1.40;;;13.80;99.90;;;;;;5115752;28;20047;-77
2023/03/24 10:26:16;;;;;;;11.00;1.70;;;13.90;99.90;;;;;;5097425;28;20040;-79
2023/03/24 10:29:12;;;;;;;9.23;1.20;;;14.00;99.90;;;;;;5098894;28;20405;-79
2023/03/24 10:31:40;;;;;;;14.47;1.43;;;14.00;99.90;;;;;;5097249;28;20054;-77
2023/03/24 10:34:11;;;;;;;10.70;1.17;;;14.00;99.90;;;;;;5115349;28;20047;-81
2023/03/24 10:36:38;;;;;;;19.20;1.30;;;14.00;99.90;;;;;;5097421;28;20075;-78
2023/03/24 10:39:04;;;;;;;;;;;14.00;99.90;;;;;;5097969;28;20047;-82
2023/03/24 10:41:31;;;;;;;8.73;1.05;;;14.10;99.90;;;;;;5080410;28;19919;-76
2023/03/24 10:43:59;;;;;;;13.32;1.40;;;14.30;99.90;;;;;;5115278;28;20403;-74
2023/03/24 10:46:27;;;;;;;12.45;1.52;;;14.30;99.90;;;;;;5115160;28;20069;-79
2023/03/24 10:49:11;;;;;;;15.95;1.85;;;14.20;99.90;;;;;;5115192;28;20425;-77
2023/03/24 10:51:38;;;;;;;15.07;1.52;;;14.00;99.90;;;;;;5115362;28;20047;-82
2023/03/24 10:54:28;;;;;;;12.02;1.35;;;14.10;99.90;;;;;;5115961;28;20055;-77
2023/03/24 10:56:56;;;;;;;10.45;1.05;;;14.10;99.90;;;;;;5115456;28;20539;-78
2023/03/24 10:59:27;;;;;;;10.15;1.33;;;14.10;99.90;;;;;;5096643;28;20043;-77
2023/03/24 11:02:03;;;;;;;14.32;1.30;;;14.30;99.90;;;;;;5114858;28;20043;-78
2023/03/24 11:04:31;;;;;;;13.93;1.10;;;14.50;99.90;;;;;;5096695;28;20051;-76
2023/03/24 11:07:00;;;;;;;9.15;0.82;;;14.50;99.90;;;;;;5114133;28;20055;-77
2023/03/24 11:09:26;;;;;;;12.45;1.17;;;14.40;99.90;;;;;;5114014;28;20541;-76
2023/03/24 11:11:52;;;;;;;7.53;1.15;;;14.40;99.90;;;;;;5095814;28;20054;-74
2023/03/24 11:14:26;;;;;;;6.60;1.45;;;14.40;99.90;;;;;;5114980;28;20089;-79
2023/03/24 11:17:14;;;;;;;10.95;1.20;;;14.10;99.90;;;;;;5095307;28;20047;-75
2023/03/24 11:19:55;;;;;;;10.40;1.33;;;14.10;99.90;;;;;;5115118;28;20079;-76
2023/03/24 11:22:21;;;;;;;9.02;1.05;;;14.00;99.90;;;;;;5096055;28;20051;-77
2023/03/24 11:24:54;;;;;;;11.77;1.38;;;14.10;99.90;;;;;;5062507;28;20054;-77
2023/03/24 11:27:20;;;;;;;11.15;1.15;;;13.90;99.90;;;;;;5114092;28;20497;-78
2023/03/24 11:29:55;;;;;;;16.52;1.50;;;13.90;99.90;;;;;;5115456;28;20130;-75
2023/03/24 11:32:26;;;;;;;12.00;1.17;;;14.10;99.90;;;;;;5096789;28;20064;-76
2023/03/24 11:35:10;;;;;;;14.75;1.23;;;14.30;99.90;;;;;;5115162;28;20051;-76
2023/03/24 11:37:36;;;;;;;13.60;2.00;;;14.40;99.90;;;;;;5097691;28;20134;-80
2023/03/24 11:40:11;;;;;;;16.27;1.83;;;14.40;99.90;;;;;;5079935;28;20123;-77
2023/03/24 11:42:44;;;;;;;14.90;1.80;;;14.30;99.90;;;;;;5080156;28;20052;-80
2023/03/24 11:45:32;;;;;;;14.93;1.60;;;14.30;99.90;;;;;;5115373;28;20047;-75
2023/03/24 11:47:58;;;;;;;11.30;1.17;;;14.40;99.90;;;;;;5114805;28;20050;-81
2023/03/24 11:50:33;;;;;;;12.43;1.67;;;14.30;99.90;;;;;;5115526;28;20047;-76
2023/03/24 11:53:17;;;;;;;10.23;2.00;;;14.40;99.90;;;;;;5114948;28;20417;-75
2023/03/24 11:56:08;;;;;;;16.90;1.65;;;14.40;99.90;;;;;;5114927;28;20079;-77
2023/03/24 11:58:37;;;;;;;14.30;1.70;;;14.40;99.90;;;;;;5096809;28;20047;-77
2023/03/24 12:01:27;;;;;;;11.00;1.50;;;14.40;99.90;;;;;;5079098;28;20079;-78
2023/03/24 12:04:14;;;;;;;14.00;1.58;;;14.40;99.90;;;;;;5114759;28;20075;-80
2023/03/24 12:06:49;;;;;;;11.13;1.40;;;14.50;99.90;;;;;;5113831;28;20100;-78
2023/03/24 12:09:31;;;;;;;13.00;1.02;;;14.50;99.90;;;;;;5114271;28;20123;-80
2023/03/24 12:12:11;;;;;;;11.02;1.00;;;14.60;99.90;;;;;;5096138;28;20048;-80
2023/03/24 12:14:55;;;;;;;9.75;1.05;;;14.40;99.90;;;;;;5080632;28;20135;-78
2023/03/24 12:17:31;;;;;;;10.60;1.10;;;14.50;99.90;;;;;;5115058;28;20386;-79
2023/03/24 12:20:18;;;;;;;11.90;1.08;;;14.70;99.90;;;;;;5116847;28;20047;-78
2023/03/24 12:23:02;;;;;;;;;;;14.80;99.90;;;;;;5098696;28;20066;-78
2023/03/24 12:25:47;;;;;;;11.70;0.90;;;14.70;99.90;;;;;;5115186;28;19971;-81
2023/03/24 12:28:35;;;;;;;7.95;0.63;;;14.80;99.90;;;;;;5082490;28;20083;-81
2023/03/24 12:31:14;;;;;;;11.45;0.98;;;14.70;99.90;;;;;;5100689;28;20055;-78
2023/03/24 12:34:09;;;;;;;12.88;1.00;;;14.70;99.90;;;;;;5100948;28;20409;-79
2023/03/24 12:36:56;;;;;;;10.55;0.90;;;14.60;99.90;;;;;;5100531;28;20066;-81
2023/03/24 12:39:31;;;;;;;11.20;0.80;;;14.80;99.90;;;;;;5100105;28;20082;-80
2023/03/24 12:42:14;;;;;;;11.85;1.08;;;14.80;99.90;;;;;;5118820;28;20348;-78
2023/03/24 12:44:46;;;;;;;9.00;0.88;;;14.90;99.90;;;;;;5117885;28;20044;-79
2023/03/24 12:47:40;;;;;;;11.43;0.98;;;14.80;99.90;;;;;;5117959;28;20104;-81
2023/03/24 12:50:30;;;;;;;15.10;1.25;;;14.80;99.90;;;;;;5117382;28;20095;-75
2023/03/24 12:53:08;;;;;;;14.00;1.27;;;14.80;99.90;;;;;;5098806;28;20050;-82
2023/03/24 12:56:08;;;;;;;19.50;1.10;;;14.90;99.90;;;;;;5117535;28;20050;-79
2023/03/24 12:58:45;;;;;;;14.27;1.10;;;15.20;99.90;;;;;;5089044;28;20070;-79
2023/03/24 13:01:33;;;;;;;7.75;0.93;;;15.50;99.90;;;;;;5116813;28;20102;-78
2023/03/24 13:04:20;;;;;;;13.02;1.00;;;15.70;99.90;;;;;;5098749;28;20051;-79
2023/03/24 13:07:06;;;;;;;8.18;0.90;;;15.60;99.90;;;;;;5098976;28;20118;-78
2023/03/24 13:10:17;;;;;;;9.98;1.00;;;15.80;99.90;;;;;;5117349;28;20062;-80
2023/03/24 13:13:15;;;;;;;10.88;0.70;;;15.50;99.90;;;;;;5116789;28;20467;-81
2023/03/24 13:15:48;;;;;;;8.75;0.60;;;15.70;99.90;;;;;;5066562;28;20100;-77